createdAt,value
2019-03-09T00:00:05.365Z,12.10
2019-03-09T00:03:08.347Z,12.73
2019-03-09T00:06:09.484Z,13.40
2019-03-09T00:09:10.606Z,12.57
2019-03-09T00:12:12.823Z,12.37
2019-03-09T00:15:13.664Z,12.67
2019-03-09T00:18:14.722Z,12.37
2019-03-09T00:21:15.786Z,12.20
2019-03-09T00:24:36.444Z,12.33
2019-03-09T00:27:50.875Z,12.63
2019-03-09T00:30:59.869Z,11.73
2019-03-09T00:34:05.744Z,12.43
2019-03-09T00:37:06.588Z,12.70
2019-03-09T00:40:07.427Z,12.47
2019-03-09T00:43:08.448Z,13.50
2019-03-09T00:46:09.491Z,12.97
2019-03-09T00:49:11.331Z,12.87
2019-03-09T00:52:12.067Z,12.57
2019-03-09T00:55:13.208Z,11.80
2019-03-09T00:58:14.080Z,12.07
2019-03-09T01:01:15.208Z,12.20
2019-03-09T01:04:16.113Z,12.50
2019-03-09T01:07:17.084Z,13.07
2019-03-09T01:10:18.263Z,12.40
2019-03-09T01:13:19.321Z,12.40
2019-03-09T01:16:20.293Z,12.47
2019-03-09T01:19:21.303Z,12.70
2019-03-09T01:22:22.359Z,13.37
2019-03-09T01:25:23.424Z,12.70
2019-03-09T01:28:24.396Z,13.17
2019-03-09T01:31:25.555Z,12.73
2019-03-09T01:34:26.455Z,13.57
2019-03-09T01:37:27.567Z,13.43
2019-03-09T01:40:27.759Z,13.20
2019-03-09T01:43:28.857Z,12.13
2019-03-09T01:46:29.964Z,12.70
2019-03-09T01:49:31.081Z,13.73
2019-03-09T01:52:31.979Z,13.70
2019-03-09T01:55:34.037Z,13.40
2019-03-09T01:58:35.253Z,13.10
2019-03-09T02:01:36.328Z,13.03
2019-03-09T02:04:37.491Z,14.10
2019-03-09T02:07:38.659Z,13.87
2019-03-09T02:10:39.706Z,13.53
2019-03-09T02:13:41.811Z,13.67
2019-03-09T02:16:43.164Z,13.83
2019-03-09T02:19:44.208Z,13.70
2019-03-09T02:22:45.407Z,13.10
2019-03-09T02:25:47.424Z,13.27
2019-03-09T02:28:48.351Z,13.73
2019-03-09T02:31:49.496Z,12.20
2019-03-09T02:34:50.564Z,13.60
2019-03-09T02:37:50.699Z,12.50
2019-03-09T02:40:51.785Z,12.70
2019-03-09T02:43:52.874Z,12.30
2019-03-09T02:46:53.779Z,12.10
2019-03-09T02:49:54.012Z,12.70
2019-03-09T02:52:55.061Z,12.10
2019-03-09T02:55:42.461Z,12.23
2019-03-09T02:58:43.262Z,11.87
2019-03-09T03:02:07.017Z,12.80
2019-03-09T03:05:07.913Z,12.00
2019-03-09T03:08:09.070Z,11.80
2019-03-09T03:10:57.504Z,12.20
2019-03-09T03:13:46.948Z,12.23
2019-03-09T03:16:48.182Z,13.10
2019-03-09T03:19:49.272Z,11.60
2019-03-09T03:22:49.759Z,11.83
2019-03-09T03:25:50.720Z,12.00
2019-03-09T03:28:51.699Z,12.20
2019-03-09T03:31:52.935Z,11.57
2019-03-09T03:34:53.841Z,12.40
2019-03-09T03:37:54.838Z,12.00
2019-03-09T03:40:55.821Z,11.50
2019-03-09T03:43:56.772Z,11.77
2019-03-09T03:46:57.956Z,11.50
2019-03-09T03:49:59.128Z,11.90
2019-03-09T03:53:00.189Z,11.73
2019-03-09T03:56:02.387Z,11.60
2019-03-09T03:59:03.667Z,11.60
2019-03-09T04:02:04.881Z,11.63
2019-03-09T04:05:06.066Z,11.83
2019-03-09T04:08:07.063Z,11.60
2019-03-09T04:11:08.107Z,11.33
2019-03-09T04:14:08.257Z,11.87
2019-03-09T04:17:09.363Z,11.47
2019-03-09T04:20:10.717Z,11.90
2019-03-09T04:23:11.488Z,11.67
2019-03-09T04:26:12.406Z,11.43
2019-03-09T04:29:13.445Z,11.73
2019-03-09T04:32:14.342Z,11.07
2019-03-09T04:35:16.613Z,11.67
2019-03-09T04:38:17.595Z,11.63
2019-03-09T04:41:18.604Z,12.10
2019-03-09T04:44:19.645Z,11.53
2019-03-09T04:47:20.912Z,10.90
2019-03-09T04:50:21.968Z,10.97
2019-03-09T04:53:23.107Z,11.47
2019-03-09T04:56:23.153Z,11.30
2019-03-09T04:59:23.455Z,11.40
2019-03-09T05:02:24.682Z,11.10
2019-03-09T05:05:25.820Z,11.57
2019-03-09T05:08:25.876Z,12.00
2019-03-09T05:11:27.193Z,11.80
2019-03-09T05:14:28.295Z,11.70
2019-03-09T05:17:29.442Z,11.40
2019-03-09T05:20:29.440Z,11.87
2019-03-09T05:23:38.659Z,11.87
2019-03-09T05:26:39.812Z,12.40
2019-03-09T05:29:40.884Z,11.83
2019-03-09T05:32:41.823Z,12.10
2019-03-09T05:35:42.859Z,11.73
2019-03-09T05:38:43.976Z,12.17
2019-03-09T05:41:45.020Z,11.73
2019-03-09T05:44:46.100Z,11.90
2019-03-09T05:47:47.347Z,11.87
2019-03-09T05:50:48.483Z,11.80
2019-03-09T05:53:49.622Z,12.40
2019-03-09T05:56:50.560Z,12.30
2019-03-09T05:59:52.670Z,11.87
2019-03-09T06:02:53.956Z,12.30
2019-03-09T06:05:55.202Z,12.03
2019-03-09T06:08:56.207Z,12.67
2019-03-09T06:11:57.337Z,12.33
2019-03-09T06:14:58.308Z,12.17
2019-03-09T06:17:59.335Z,12.43
2019-03-09T06:21:00.500Z,11.77
2019-03-09T06:24:01.524Z,12.47
2019-03-09T06:27:02.682Z,12.10
2019-03-09T06:30:03.761Z,12.93
2019-03-09T06:33:05.103Z,11.70
2019-03-09T06:36:06.179Z,11.70
2019-03-09T06:39:07.254Z,11.83
2019-03-09T06:42:08.440Z,12.50
2019-03-09T06:45:09.398Z,12.47
2019-03-09T06:48:10.241Z,11.87
2019-03-09T06:51:11.376Z,11.60
2019-03-09T06:54:12.360Z,12.50
2019-03-09T06:57:14.233Z,11.90
2019-03-09T07:00:14.588Z,11.57
2019-03-09T07:03:15.823Z,11.43
2019-03-09T07:06:16.860Z,11.27
2019-03-09T07:09:18.027Z,12.10
2019-03-09T07:12:19.256Z,11.23
2019-03-09T07:15:20.500Z,11.30
2019-03-09T07:18:22.170Z,11.33
2019-03-09T07:21:23.217Z,11.20
2019-03-09T07:24:24.371Z,11.60
2019-03-09T07:27:24.747Z,10.77
2019-03-09T07:30:25.756Z,11.00
2019-03-09T07:33:26.851Z,10.80
2019-03-09T07:36:27.980Z,10.50
2019-03-09T07:39:28.905Z,10.73
2019-03-09T07:42:29.743Z,10.43
2019-03-09T07:45:31.213Z,10.53
2019-03-09T07:48:32.450Z,10.70
2019-03-09T07:51:33.504Z,10.50
2019-03-09T07:54:34.567Z,10.40
2019-03-09T07:57:35.572Z,10.40
2019-03-09T08:00:36.721Z,12.03
2019-03-09T08:03:37.849Z,10.40
2019-03-09T08:06:38.794Z,10.40
2019-03-09T08:09:39.963Z,10.30
2019-03-09T08:12:27.464Z,10.47
2019-03-09T08:15:28.044Z,10.30
2019-03-09T08:18:28.895Z,10.70
2019-03-09T08:21:29.946Z,10.40
2019-03-09T08:24:31.196Z,10.20
2019-03-09T08:27:32.284Z,9.90
2019-03-09T08:30:33.328Z,10.00
2019-03-09T08:33:34.615Z,10.23
2019-03-09T08:36:35.982Z,10.50
2019-03-09T08:39:38.006Z,10.20
2019-03-09T08:42:27.387Z,10.57
2019-03-09T08:45:28.372Z,10.43
2019-03-09T08:48:29.241Z,10.10
2019-03-09T08:51:30.266Z,10.33
2019-03-09T08:54:31.059Z,10.87
2019-03-09T08:57:31.986Z,10.33
2019-03-09T09:00:32.602Z,10.00
2019-03-09T09:03:33.653Z,9.93
2019-03-09T09:06:34.519Z,10.73
2019-03-09T09:09:35.603Z,9.90
2019-03-09T09:12:36.586Z,10.20
2019-03-09T09:15:37.597Z,9.90
2019-03-09T09:18:38.595Z,10.10
2019-03-09T09:21:39.503Z,10.10
2019-03-09T09:24:40.471Z,10.80
2019-03-09T09:27:41.643Z,10.30
2019-03-09T09:30:43.039Z,10.00
2019-03-09T09:33:43.743Z,9.90
2019-03-09T09:36:44.113Z,9.90
2019-03-09T09:39:44.162Z,10.10
2019-03-09T09:42:45.403Z,10.00
2019-03-09T09:45:47.390Z,9.90
2019-03-09T09:48:48.502Z,9.97
2019-03-09T09:51:49.670Z,10.07
2019-03-09T09:54:50.877Z,9.80
2019-03-09T09:57:51.819Z,9.80
2019-03-09T10:00:52.916Z,9.63
2019-03-09T10:03:53.959Z,9.70
2019-03-09T10:06:55.004Z,10.00
2019-03-09T10:09:56.081Z,9.70
2019-03-09T10:12:57.199Z,9.50
2019-03-09T10:15:58.034Z,9.50
2019-03-09T10:18:59.012Z,9.60
2019-03-09T10:22:00.152Z,9.50
2019-03-09T10:25:01.325Z,9.50
2019-03-09T10:28:02.484Z,9.50
2019-03-09T10:31:03.385Z,9.60
2019-03-09T10:34:04.527Z,9.60
2019-03-09T10:37:06.393Z,10.00
2019-03-09T10:40:07.308Z,9.80
2019-03-09T10:43:08.447Z,9.60
2019-03-09T10:46:09.638Z,9.60
2019-03-09T10:49:11.450Z,9.67
2019-03-09T10:52:12.733Z,9.80
2019-03-09T10:55:13.988Z,10.20
2019-03-09T10:58:14.994Z,9.97
2019-03-09T11:01:16.260Z,10.10
2019-03-09T11:04:24.322Z,9.80
2019-03-09T11:07:20.312Z,10.20
2019-03-09T11:10:20.683Z,10.57
2019-03-09T11:13:22.736Z,10.33
2019-03-09T11:16:22.939Z,9.80
2019-03-09T11:19:24.111Z,9.90
2019-03-09T11:22:25.047Z,9.87
2019-03-09T11:25:26.299Z,9.90
2019-03-09T11:28:28.284Z,9.73
2019-03-09T11:31:29.380Z,9.63
2019-03-09T11:34:30.340Z,9.60
2019-03-09T11:37:31.516Z,9.60
2019-03-09T11:40:32.716Z,9.60
2019-03-09T11:43:33.668Z,9.60
2019-03-09T11:46:37.096Z,10.13
2019-03-09T11:49:37.733Z,9.60
2019-03-09T11:52:38.960Z,9.67
2019-03-09T11:55:39.919Z,9.50
2019-03-09T11:58:41.039Z,9.93
2019-03-09T12:01:43.067Z,9.80
2019-03-09T12:04:47.069Z,9.70
2019-03-09T12:07:47.100Z,9.50
2019-03-09T12:10:48.260Z,10.07
2019-03-09T12:13:49.358Z,9.63
2019-03-09T12:16:50.473Z,9.80
2019-03-09T12:19:51.552Z,9.87
2019-03-09T12:22:56.875Z,9.90
2019-03-09T12:25:55.836Z,9.67
2019-03-09T12:28:56.972Z,9.87
2019-03-09T12:31:57.847Z,9.50
2019-03-09T12:34:58.892Z,9.70
2019-03-09T12:38:00.389Z,9.73
2019-03-09T12:41:01.240Z,9.40
2019-03-09T12:44:03.135Z,9.40
2019-03-09T12:47:04.135Z,9.63
2019-03-09T12:50:05.418Z,9.40
2019-03-09T12:53:06.511Z,10.03
2019-03-09T12:56:07.619Z,9.80
2019-03-09T12:59:07.786Z,9.40
2019-03-09T13:02:08.779Z,9.60
2019-03-09T13:05:10.057Z,9.50
2019-03-09T13:08:11.296Z,10.03
2019-03-09T13:11:13.252Z,9.43
2019-03-09T13:14:14.463Z,9.30
2019-03-09T13:17:15.490Z,9.50
2019-03-09T13:20:16.463Z,9.80
2019-03-09T13:23:17.708Z,9.50
2019-03-09T13:26:19.767Z,9.40
2019-03-09T13:29:21.069Z,9.37
2019-03-09T13:32:22.008Z,9.40
2019-03-09T13:35:24.364Z,9.23
2019-03-09T13:38:25.335Z,9.97
2019-03-09T13:41:26.475Z,9.40
2019-03-09T13:44:27.450Z,10.00
2019-03-09T13:47:28.356Z,9.50
2019-03-09T13:50:29.612Z,9.70
2019-03-09T13:53:30.581Z,9.30
2019-03-09T13:56:31.871Z,9.80
2019-03-09T13:59:32.977Z,9.57
2019-03-09T14:02:35.218Z,9.50
2019-03-09T14:05:36.127Z,9.50
2019-03-09T14:08:38.200Z,9.40
2019-03-09T14:11:39.431Z,9.60
2019-03-09T14:14:41.215Z,9.50
2019-03-09T14:17:42.493Z,9.53
2019-03-09T14:20:43.657Z,9.70
2019-03-09T14:23:44.843Z,9.70
2019-03-09T14:26:46.060Z,9.50
2019-03-09T14:29:47.190Z,9.97
2019-03-09T14:32:49.236Z,9.50
2019-03-09T14:35:50.287Z,10.00
2019-03-09T14:38:51.289Z,9.97
2019-03-09T14:41:52.176Z,9.80
2019-03-09T14:44:53.271Z,9.93
2019-03-09T14:47:54.388Z,9.60
2019-03-09T14:50:55.303Z,9.70
2019-03-09T14:53:56.288Z,9.57
2019-03-09T14:56:57.391Z,9.97
2019-03-09T14:59:58.379Z,9.50
2019-03-09T15:02:59.520Z,9.37
2019-03-09T15:06:00.483Z,9.70
2019-03-09T15:09:01.488Z,9.90
2019-03-09T15:12:04.633Z,9.80
2019-03-09T15:15:05.710Z,9.43
2019-03-09T15:18:06.696Z,9.70
2019-03-09T15:21:07.728Z,9.43
2019-03-09T15:24:09.012Z,10.10
2019-03-09T15:27:10.071Z,9.60
2019-03-09T15:30:11.157Z,9.57
2019-03-09T15:33:12.224Z,10.17
2019-03-09T15:36:13.591Z,9.80
2019-03-09T15:39:14.708Z,10.10
2019-03-09T15:42:16.951Z,10.10
2019-03-09T15:45:19.021Z,10.57
2019-03-09T15:48:19.899Z,10.30
2019-03-09T15:51:21.767Z,10.73
2019-03-09T15:54:23.050Z,10.40
2019-03-09T15:57:24.085Z,10.20
2019-03-09T16:00:13.967Z,9.53
2019-03-09T16:03:15.067Z,9.63
2019-03-09T16:06:16.858Z,9.60
2019-03-09T16:09:18.212Z,10.00
2019-03-09T16:12:19.350Z,9.83
2019-03-09T16:15:20.372Z,9.67
2019-03-09T16:18:21.277Z,9.60
2019-03-09T16:21:22.412Z,9.93
2019-03-09T16:24:25.584Z,9.47
2019-03-09T16:27:26.259Z,9.50
2019-03-09T16:30:27.410Z,9.40
2019-03-09T16:33:28.638Z,9.40
2019-03-09T16:36:29.807Z,9.37
2019-03-09T16:39:30.831Z,9.80
2019-03-09T16:42:31.933Z,9.60
2019-03-09T16:45:33.159Z,9.93
2019-03-09T16:48:34.120Z,9.30
2019-03-09T16:51:36.027Z,17.33
2019-03-09T16:54:37.165Z,204.60
2019-03-09T16:57:38.123Z,12.67
2019-03-09T17:00:39.276Z,191.03
2019-03-09T17:03:41.312Z,160.73
2019-03-09T17:06:42.532Z,191.97
2019-03-09T17:09:44.584Z,289.60
2019-03-09T17:12:45.690Z,363.97
2019-03-09T17:15:48.250Z,18.20
2019-03-09T17:18:48.913Z,96.97
2019-03-09T17:21:50.235Z,130.10
2019-03-09T17:24:51.294Z,178.33
2019-03-09T17:27:52.326Z,18.50
2019-03-09T17:30:53.352Z,82.50
2019-03-09T17:33:54.418Z,86.57
2019-03-09T17:36:55.500Z,10.13
2019-03-09T17:39:56.651Z,10.07
2019-03-09T17:42:57.900Z,10.20
2019-03-09T17:45:58.962Z,9.93
2019-03-09T17:49:00.196Z,10.00
2019-03-09T17:52:01.253Z,11.10
2019-03-09T17:55:02.522Z,18.13
2019-03-09T17:58:03.397Z,10.40
2019-03-09T18:01:03.785Z,11.20
2019-03-09T18:04:04.507Z,10.50
2019-03-09T18:07:05.729Z,10.27
2019-03-09T18:10:06.561Z,10.50
2019-03-09T18:13:16.944Z,10.67
2019-03-09T18:16:18.174Z,13.83
2019-03-09T18:19:19.110Z,10.47
2019-03-09T18:22:20.165Z,10.33
2019-03-09T18:25:22.122Z,9.80
2019-03-09T18:28:23.299Z,9.90
2019-03-09T18:31:24.726Z,10.10
2019-03-09T18:34:27.483Z,10.13
2019-03-09T18:37:28.598Z,10.50
2019-03-09T18:40:29.680Z,10.50
2019-03-09T18:43:30.972Z,20.10
2019-03-09T18:46:31.949Z,12.27
2019-03-09T18:49:34.053Z,15.47
2019-03-09T18:52:36.211Z,10.33
2019-03-09T18:55:37.589Z,11.63
2019-03-09T18:58:38.606Z,11.27
2019-03-09T19:01:40.536Z,11.50
2019-03-09T19:04:41.651Z,9.93
2019-03-09T19:07:42.892Z,16.30
2019-03-09T19:10:43.844Z,10.63
2019-03-09T19:13:45.011Z,11.43
2019-03-09T19:16:45.916Z,10.80
2019-03-09T19:19:47.148Z,11.67
2019-03-09T19:22:48.277Z,10.73
2019-03-09T19:25:49.188Z,10.20
2019-03-09T19:28:50.160Z,10.30
2019-03-09T19:31:51.302Z,11.10
2019-03-09T19:34:52.391Z,11.23
2019-03-09T19:37:53.684Z,10.60
2019-03-09T19:40:54.780Z,10.27
2019-03-09T19:43:55.948Z,12.10
2019-03-09T19:46:56.919Z,10.93
2019-03-09T19:49:58.131Z,10.50
2019-03-09T19:52:59.419Z,12.33
2019-03-09T19:56:00.272Z,10.93
2019-03-09T19:59:01.344Z,11.40
2019-03-09T20:02:02.465Z,11.67
2019-03-09T20:05:03.564Z,11.50
2019-03-09T20:08:04.455Z,11.53
2019-03-09T20:11:05.511Z,11.13
2019-03-09T20:14:06.308Z,10.83
2019-03-09T20:17:07.199Z,11.53
2019-03-09T20:20:08.496Z,10.90
2019-03-09T20:23:09.651Z,11.10
2019-03-09T20:26:10.059Z,11.17
2019-03-09T20:29:11.103Z,13.80
2019-03-09T20:31:58.550Z,10.80
2019-03-09T20:34:44.675Z,11.00
2019-03-09T20:37:30.342Z,10.83
2019-03-09T20:40:16.369Z,10.60
2019-03-09T20:43:02.133Z,10.90
2019-03-09T20:45:48.403Z,11.50
2019-03-09T20:48:33.832Z,13.67
2019-03-09T20:51:19.675Z,10.80
2019-03-09T20:54:05.781Z,11.40
2019-03-09T20:56:51.855Z,12.60
2019-03-09T20:59:38.056Z,11.20
2019-03-09T21:05:46.632Z,11.20
2019-03-09T21:08:49.991Z,14.30
2019-03-09T21:11:52.998Z,13.60
2019-03-09T21:14:58.032Z,11.10
2019-03-09T21:18:00.654Z,11.70
2019-03-09T21:21:03.779Z,11.50
2019-03-09T21:24:09.053Z,11.03
2019-03-09T21:27:11.227Z,10.90
2019-03-09T21:30:14.053Z,11.00
2019-03-09T21:33:16.359Z,12.10
2019-03-09T21:36:18.817Z,11.10
2019-03-09T21:39:07.389Z,13.70
2019-03-09T21:42:17.709Z,11.40
2019-03-09T21:45:21.340Z,11.47
2019-03-09T21:48:25.410Z,11.20
2019-03-09T21:51:27.648Z,11.70
2019-03-09T21:54:32.783Z,11.03
2019-03-09T21:57:34.852Z,13.63
2019-03-09T22:00:36.925Z,12.30
2019-03-09T22:03:37.975Z,11.33
2019-03-09T22:06:49.135Z,12.00
2019-03-09T22:09:59.086Z,11.90
2019-03-09T22:12:59.985Z,10.87
2019-03-09T22:16:08.187Z,11.43
2019-03-09T22:19:13.452Z,11.07
2019-03-09T22:22:15.839Z,11.77
2019-03-09T22:25:20.900Z,10.90
2019-03-09T22:28:22.835Z,11.30
2019-03-09T22:31:23.939Z,11.47
2019-03-09T22:34:36.256Z,11.17
2019-03-09T22:37:40.165Z,11.27
2019-03-09T22:40:42.152Z,11.10
2019-03-09T22:43:50.448Z,11.50
2019-03-09T22:46:52.443Z,11.10
2019-03-09T22:49:54.563Z,11.90
2019-03-09T22:52:56.901Z,11.60
2019-03-09T22:56:04.736Z,11.27
2019-03-09T22:59:06.865Z,11.20
2019-03-09T23:02:08.635Z,11.33
2019-03-09T23:05:11.213Z,11.70
2019-03-09T23:08:12.824Z,11.30
2019-03-09T23:11:14.867Z,10.80
2019-03-09T23:14:02.379Z,11.20
2019-03-09T23:17:04.143Z,10.73
2019-03-09T23:20:06.041Z,11.27
2019-03-09T23:23:08.104Z,11.17
2019-03-09T23:26:10.285Z,10.70
2019-03-09T23:29:13.251Z,11.40
2019-03-09T23:32:14.544Z,11.80
2019-03-09T23:35:25.591Z,11.10
2019-03-09T23:38:27.569Z,10.63
2019-03-09T23:41:28.755Z,11.43
2019-03-09T23:44:39.873Z,11.53
2019-03-09T23:47:41.143Z,11.00
2019-03-09T23:50:53.512Z,11.80
2019-03-09T23:53:55.527Z,11.43
2019-03-09T23:56:56.705Z,11.20
